createdAt,value
2023-02-26T08:08:28.268Z,1.10
2023-02-26T08:10:56.557Z,1.10
2023-02-26T08:18:24.411Z,1.30
2023-02-26T08:30:48.929Z,1.30
2023-02-26T08:35:47.481Z,1.40
2023-02-26T08:43:13.357Z,1.90
2023-02-26T08:45:42.008Z,1.50
2023-02-26T08:50:41.046Z,1.40
2023-02-26T08:53:12.268Z,2.20
2023-02-26T08:55:42.353Z,1.90
2023-02-26T08:58:10.523Z,1.50
2023-02-26T09:08:08.186Z,2.00
2023-02-26T09:13:09.884Z,2.20
2023-02-26T09:20:37.904Z,2.40
2023-02-26T09:23:07.341Z,2.20
2023-02-26T09:33:10.524Z,3.00
2023-02-26T09:40:48.968Z,3.60
2023-02-26T09:43:50.430Z,3.90
2023-02-26T09:46:48.597Z,4.00
2023-02-26T09:49:32.921Z,5.40
2023-02-26T09:52:26.805Z,5.00
2023-02-26T09:55:02.402Z,5.60
2023-02-26T09:57:37.726Z,5.30
2023-02-26T10:00:30.015Z,5.60
2023-02-26T10:03:11.366Z,5.80
2023-02-26T10:06:05.958Z,6.00
2023-02-26T10:08:44.389Z,6.00
2023-02-26T10:11:22.355Z,7.00
2023-02-26T10:13:58.547Z,7.30
2023-02-26T10:16:31.752Z,7.40
2023-02-26T10:19:07.972Z,7.60
2023-02-26T10:21:47.937Z,6.30
2023-02-26T10:24:47.491Z,5.70
2023-02-26T10:27:38.075Z,5.60
2023-02-26T10:30:27.912Z,5.00
2023-02-26T10:33:26.080Z,5.10
2023-02-26T10:36:02.075Z,4.70
2023-02-26T10:38:31.980Z,4.70
2023-02-26T10:41:08.081Z,4.50
2023-02-26T10:44:00.419Z,4.40
2023-02-26T10:46:43.971Z,4.50
2023-02-26T10:49:46.879Z,4.60
2023-02-26T10:52:19.225Z,4.50
2023-02-26T10:55:03.894Z,4.50
2023-02-26T10:57:36.207Z,4.30
2023-02-26T11:00:07.798Z,4.10
2023-02-26T11:02:43.619Z,4.50
2023-02-26T11:05:31.847Z,4.80
2023-02-26T11:08:09.796Z,5.10
2023-02-26T11:10:48.271Z,5.60
2023-02-26T11:15:49.238Z,6.50
2023-02-26T11:18:26.052Z,6.50
2023-02-26T11:20:58.117Z,6.00
2023-02-26T11:23:30.844Z,5.20
2023-02-26T11:26:18.744Z,4.60
2023-02-26T11:28:54.150Z,4.30
2023-02-26T11:31:24.893Z,4.00
2023-02-26T11:34:11.488Z,3.80
2023-02-26T11:36:42.268Z,3.80
2023-02-26T11:39:21.456Z,3.80
2023-02-26T11:41:51.404Z,3.90
2023-02-26T11:44:28.312Z,3.90
2023-02-26T11:46:59.316Z,4.00
2023-02-26T11:49:29.755Z,4.10
2023-02-26T11:52:09.398Z,4.30
2023-02-26T11:54:40.066Z,4.20
2023-02-26T11:57:16.749Z,4.20
2023-02-26T11:59:50.937Z,4.10
2023-02-26T12:02:21.780Z,4.00
2023-02-26T12:04:58.724Z,4.30
2023-02-26T12:12:53.693Z,5.50
2023-02-26T12:15:31.855Z,5.40
2023-02-26T12:20:43.374Z,5.10
2023-02-26T12:23:13.963Z,4.80
2023-02-26T12:26:00.337Z,4.70
2023-02-26T12:28:56.602Z,4.50
2023-02-26T12:31:52.907Z,4.40
2023-02-26T12:34:41.785Z,4.50
2023-02-26T12:37:39.681Z,4.50
2023-02-26T12:40:46.114Z,4.40
2023-02-26T12:43:31.216Z,4.30
2023-02-26T12:46:25.046Z,4.30
2023-02-26T12:49:04.673Z,4.10
2023-02-26T12:51:43.932Z,4.00
2023-02-26T12:56:49.465Z,3.80
2023-02-26T13:02:07.191Z,3.60
2023-02-26T13:04:59.089Z,3.60
2023-02-26T13:10:26.145Z,3.80
2023-02-26T13:13:19.410Z,3.80
2023-02-26T13:16:09.193Z,3.90
2023-02-26T13:18:53.533Z,4.00
2023-02-26T13:21:39.339Z,4.10
2023-02-26T13:24:16.964Z,3.90
2023-02-26T13:26:46.679Z,3.90
2023-02-26T13:29:25.932Z,4.00
2023-02-26T13:32:15.095Z,3.80
2023-02-26T13:35:04.695Z,3.70
2023-02-26T13:37:39.841Z,3.60
2023-02-26T13:45:20.114Z,3.70
2023-02-26T13:48:10.223Z,3.70
2023-02-26T13:50:51.459Z,3.70
2023-02-26T13:53:29.906Z,3.80
2023-02-26T13:56:10.163Z,3.60
2023-02-26T13:58:44.683Z,3.40
2023-02-26T14:01:28.819Z,3.40
2023-02-26T14:04:09.479Z,3.30
2023-02-26T14:06:44.344Z,3.20
2023-02-26T14:09:27.435Z,3.10
2023-02-26T14:17:08.167Z,3.10
2023-02-26T14:19:39.994Z,3.70
2023-02-26T14:22:14.458Z,3.00
2023-02-26T14:25:01.906Z,3.00
2023-02-26T14:27:35.935Z,3.50
2023-02-26T14:32:52.835Z,3.00
2023-02-26T14:35:30.301Z,3.00
2023-02-26T14:38:19.527Z,3.10
2023-02-26T14:41:00.023Z,3.10
2023-02-26T14:43:45.425Z,3.10
2023-02-26T14:51:50.707Z,3.20
2023-02-26T14:54:54.057Z,3.20
2023-02-26T15:00:14.676Z,3.00
2023-02-26T15:03:37.375Z,3.70
2023-02-26T15:08:48.909Z,3.10
2023-02-26T15:21:46.778Z,2.90
2023-02-26T15:44:33.276Z,2.50
2023-02-26T15:47:03.821Z,2.50
2023-02-26T15:49:41.966Z,2.40
2023-02-26T15:52:15.989Z,2.30
2023-02-26T15:54:52.852Z,2.30
2023-02-26T15:59:52.912Z,2.40
2023-02-26T16:02:28.488Z,2.20
2023-02-26T16:09:56.306Z,2.10
2023-02-26T16:12:45.036Z,2.10
2023-02-26T16:15:17.596Z,2.00
2023-02-26T16:17:49.763Z,2.20
2023-02-26T16:20:22.055Z,1.80
2023-02-26T16:22:55.238Z,1.80
2023-02-26T16:25:30.359Z,1.80
2023-02-26T16:28:04.572Z,1.80
2023-02-26T16:30:39.271Z,1.80
2023-02-26T16:33:16.449Z,1.80
2023-02-26T16:38:53.932Z,1.70
2023-02-26T16:41:26.314Z,1.70
2023-02-26T16:43:57.928Z,1.60
2023-02-26T16:46:43.163Z,1.50
2023-02-26T16:49:32.558Z,1.50
2023-02-26T16:54:42.310Z,1.40
2023-02-26T16:59:54.985Z,1.40
2023-02-26T17:02:26.516Z,1.40
2023-02-26T17:04:58.668Z,1.30
2023-02-26T17:07:35.582Z,1.30
2023-02-26T17:12:52.541Z,1.30
2023-02-26T17:15:30.149Z,1.30
2023-02-26T17:25:29.269Z,1.40
2023-02-26T17:40:25.214Z,1.40
2023-02-26T17:50:26.879Z,1.30
2023-02-26T18:00:19.584Z,1.40
2023-02-26T18:07:43.818Z,0.90
2023-02-26T18:20:22.871Z,0.30
2023-02-26T18:27:54.746Z,0.30
2023-02-26T18:30:26.196Z,0.30
2023-02-26T18:35:25.825Z,0.30
2023-02-26T18:40:27.953Z,0.60
2023-02-26T18:55:20.019Z,1.00
2023-02-26T18:57:51.303Z,0.60
2023-02-26T19:07:55.790Z,0.60
2023-02-26T19:15:25.346Z,0.90
2023-02-26T19:17:55.428Z,0.70
2023-02-26T19:27:55.016Z,1.00
2023-02-26T19:30:24.090Z,0.70
2023-02-26T19:35:27.221Z,0.90
2023-02-26T19:42:54.507Z,0.60
2023-02-26T19:47:51.197Z,0.90
2023-02-26T19:57:50.567Z,0.50
2023-02-26T20:10:17.654Z,0.80
2023-02-26T20:12:46.884Z,0.60
2023-02-26T20:27:40.965Z,0.70
2023-02-26T20:30:09.720Z,0.70
2023-02-26T21:05:09.241Z,-0.20
2023-02-26T21:10:15.245Z,-0.30
2023-02-26T21:15:15.581Z,-0.80
2023-02-26T21:20:18.566Z,-0.40
2023-02-26T21:30:14.266Z,-0.40
2023-02-26T22:10:10.298Z,-1.00
2023-02-26T22:22:39.117Z,-1.10
